createdAt,value
2023-04-11T00:02:09.993Z,1011.70
2023-04-11T00:07:10.172Z,1011.55
2023-04-11T00:12:09.330Z,1011.37
2023-04-11T00:17:08.620Z,1011.41
2023-04-11T00:22:08.724Z,1011.38
2023-04-11T00:27:07.145Z,1011.23
2023-04-11T00:32:06.350Z,1011.17
2023-04-11T00:37:05.615Z,1011.12
2023-04-11T00:42:04.862Z,1011.16
2023-04-11T00:47:04.026Z,1011.28
2023-04-11T00:52:03.261Z,1011.31
2023-04-11T00:57:01.515Z,1011.57
2023-04-11T01:02:01.749Z,1011.70
2023-04-11T01:07:00.819Z,1011.77
2023-04-11T01:11:59.937Z,1011.67
2023-04-11T01:16:59.456Z,1011.58
2023-04-11T01:21:57.505Z,1011.40
2023-04-11T01:26:57.618Z,1011.26
2023-04-11T01:31:56.980Z,1011.00
2023-04-11T01:36:56.430Z,1010.84
2023-04-11T01:41:55.642Z,1010.81
2023-04-11T01:46:54.873Z,1010.90
2023-04-11T01:51:53.106Z,1010.90
2023-04-11T01:56:53.268Z,1010.99
2023-04-11T02:01:52.242Z,1010.81
2023-04-11T02:06:51.972Z,1010.67
2023-04-11T02:11:52.100Z,1010.85
2023-04-11T02:16:50.195Z,1010.93
2023-04-11T02:21:49.453Z,1010.81
2023-04-11T02:26:47.758Z,1010.65
2023-04-11T02:31:48.033Z,1010.54
2023-04-11T02:36:47.276Z,1010.87
2023-04-11T02:41:45.556Z,1010.74
2023-04-11T02:46:45.846Z,1010.76
2023-04-11T02:51:44.940Z,1010.71
2023-04-11T02:56:44.321Z,1010.61
2023-04-11T03:01:43.603Z,1010.43
2023-04-11T03:06:43.935Z,1010.24
2023-04-11T03:11:42.153Z,1010.33
2023-04-11T03:16:41.332Z,1010.32
2023-04-11T03:21:40.625Z,1010.41
2023-04-11T03:26:39.927Z,1010.43
2023-04-11T03:31:39.141Z,1010.54
2023-04-11T03:36:38.288Z,1010.54
2023-04-11T03:41:36.594Z,1010.64
2023-04-11T03:46:36.815Z,1010.70
2023-04-11T03:51:36.060Z,1010.96
2023-04-11T03:56:35.245Z,1010.80
2023-04-11T04:01:34.510Z,1010.92
2023-04-11T04:06:33.977Z,1010.85
2023-04-11T04:11:33.019Z,1010.85
2023-04-11T04:16:32.659Z,1010.98
2023-04-11T04:21:31.665Z,1010.84
2023-04-11T04:26:30.625Z,1010.90
2023-04-11T04:31:29.949Z,1010.92
2023-04-11T04:36:29.198Z,1011.08
2023-04-11T04:41:27.497Z,1011.03
2023-04-11T04:46:27.494Z,1011.10
2023-04-11T04:51:27.056Z,1011.04
2023-04-11T04:56:26.039Z,1011.18
2023-04-11T05:01:25.231Z,1011.19
2023-04-11T05:06:24.349Z,1011.23
2023-04-11T05:11:23.764Z,1011.22
2023-04-11T05:16:22.781Z,1011.37
2023-04-11T05:21:21.962Z,1011.54
2023-04-11T05:26:21.272Z,1011.63
2023-04-11T05:31:18.643Z,1011.88
2023-04-11T05:36:18.798Z,1011.87
2023-04-11T05:41:18.835Z,1011.94
2023-04-11T05:46:18.243Z,1011.97
2023-04-11T05:51:20.294Z,1012.04
2023-04-11T05:56:16.641Z,1012.16
2023-04-11T06:01:18.860Z,1012.24
2023-04-11T06:06:14.820Z,1012.20
2023-04-11T06:11:13.138Z,1012.20
2023-04-11T06:16:13.586Z,1012.28
2023-04-11T06:21:11.741Z,1012.37
2023-04-11T06:26:11.832Z,1012.57
2023-04-11T06:31:11.098Z,1012.70
2023-04-11T06:36:10.214Z,1012.55
2023-04-11T06:41:08.479Z,1012.67
2023-04-11T06:46:06.073Z,1012.57
2023-04-11T06:51:07.892Z,1012.57
2023-04-11T06:56:03.160Z,1012.56
2023-04-11T07:01:05.560Z,1012.58
2023-04-11T07:06:05.581Z,1012.68
2023-04-11T07:11:03.880Z,1012.79
2023-04-11T07:16:04.246Z,1012.94
2023-04-11T07:21:03.294Z,1012.86
2023-04-11T07:26:02.561Z,1012.83
2023-04-11T07:31:02.068Z,1012.75
2023-04-11T07:36:01.227Z,1012.89
2023-04-11T07:41:00.412Z,1013.08
2023-04-11T07:45:58.538Z,1012.97
2023-04-11T07:50:58.695Z,1012.89
2023-04-11T07:55:56.857Z,1012.82
2023-04-11T08:00:56.991Z,1012.94
2023-04-11T08:05:57.288Z,1013.00
2023-04-11T08:10:55.581Z,1013.01
2023-04-11T08:15:54.901Z,1013.09
2023-04-11T08:20:55.225Z,1013.18
2023-04-11T08:25:53.565Z,1013.20
2023-04-11T08:30:52.773Z,1013.20
2023-04-11T08:35:51.971Z,1013.26
2023-04-11T08:40:50.209Z,1013.44
2023-04-11T08:45:50.412Z,1013.55
2023-04-11T08:50:48.565Z,1013.71
2023-04-11T08:55:49.802Z,1013.74
2023-04-11T09:00:47.061Z,1013.91
2023-04-11T09:05:47.285Z,1013.96
2023-04-11T09:10:45.545Z,1014.16
2023-04-11T09:15:45.706Z,1014.20
2023-04-11T09:20:43.883Z,1014.32
2023-04-11T09:25:44.056Z,1014.32
2023-04-11T09:30:42.425Z,1014.51
2023-04-11T09:35:42.669Z,1014.39
2023-04-11T09:40:41.829Z,1014.46
2023-04-11T09:45:51.732Z,1014.33
2023-04-11T09:50:40.249Z,1014.53
2023-04-11T09:55:38.426Z,1014.37
2023-04-11T10:00:38.674Z,1014.54
2023-04-11T10:05:37.841Z,1014.52
2023-04-11T10:10:36.040Z,1014.61
2023-04-11T10:15:35.234Z,1014.43
2023-04-11T10:20:35.451Z,1014.49
2023-04-11T10:25:35.632Z,1014.43
2023-04-11T10:30:32.795Z,1014.44
2023-04-11T10:35:32.952Z,1014.50
2023-04-11T10:40:31.152Z,1014.64
2023-04-11T10:45:31.339Z,1014.70
2023-04-11T10:50:29.545Z,1014.92
2023-04-11T10:55:29.829Z,1014.88
2023-04-11T11:00:29.088Z,1014.90
2023-04-11T11:05:28.292Z,1014.83
2023-04-11T11:10:26.451Z,1014.76
2023-04-11T11:15:26.576Z,1014.67
2023-04-11T11:20:26.043Z,1014.81
2023-04-11T11:25:25.152Z,1014.60
2023-04-11T11:30:24.607Z,1014.76
2023-04-11T11:35:22.729Z,1014.66
2023-04-11T11:40:23.441Z,1014.50
2023-04-11T11:45:22.323Z,1014.31
2023-04-11T11:50:20.726Z,1014.49
2023-04-11T11:55:20.892Z,1014.50
2023-04-11T12:00:21.132Z,1014.71
2023-04-11T12:05:19.251Z,1014.44
2023-04-11T12:10:18.655Z,1014.35
2023-04-11T12:15:17.955Z,1014.35
2023-04-11T12:20:17.236Z,1014.31
2023-04-11T12:25:16.394Z,1014.28
2023-04-11T12:30:15.978Z,1014.36
2023-04-11T12:35:14.987Z,1014.30
2023-04-11T12:40:14.224Z,1014.51
2023-04-11T12:45:14.599Z,1014.55
2023-04-11T12:50:12.695Z,1014.64
2023-04-11T12:55:12.118Z,1014.60
2023-04-11T13:00:10.256Z,1014.65
2023-04-11T13:05:09.535Z,1014.75
2023-04-11T13:10:09.748Z,1014.78
2023-04-11T13:15:10.935Z,1014.75
2023-04-11T13:20:08.111Z,1014.77
2023-04-11T13:25:07.317Z,1014.73
2023-04-11T13:30:06.524Z,1014.62
2023-04-11T13:35:05.734Z,1014.60
2023-04-11T13:40:04.984Z,1014.53
2023-04-11T13:45:04.227Z,1014.50
2023-04-11T13:50:03.505Z,1014.44
2023-04-11T13:55:01.903Z,1014.53
2023-04-11T14:00:00.868Z,1014.57
2023-04-11T14:05:00.062Z,1014.52
2023-04-11T14:09:59.332Z,1014.53
2023-04-11T14:14:58.617Z,1014.42
2023-04-11T14:19:58.885Z,1014.45
2023-04-11T14:24:58.135Z,1014.48
2023-04-11T14:29:56.345Z,1014.47
2023-04-11T14:34:56.606Z,1014.40
2023-04-11T14:39:55.926Z,1014.47
2023-04-11T14:44:54.067Z,1014.45
2023-04-11T14:49:53.205Z,1014.47
2023-04-11T14:54:52.373Z,1014.38
2023-04-11T14:59:51.704Z,1014.46
2023-04-11T15:04:51.871Z,1014.36
2023-04-11T15:09:49.923Z,1014.31
2023-04-11T15:14:49.281Z,1014.18
2023-04-11T15:19:48.365Z,1014.13
2023-04-11T15:24:48.532Z,1013.94
2023-04-11T15:29:47.738Z,1013.90
2023-04-11T15:34:47.137Z,1013.76
2023-04-11T15:39:45.278Z,1013.72
2023-04-11T15:44:44.385Z,1013.61
2023-04-11T15:49:44.816Z,1013.45
2023-04-11T15:54:42.890Z,1013.53
2023-04-11T15:59:43.279Z,1013.41
2023-04-11T16:04:41.392Z,1013.35
2023-04-11T16:09:41.398Z,1013.42
2023-04-11T16:14:40.614Z,1013.42
2023-04-11T16:19:39.736Z,1013.19
2023-04-11T16:24:38.321Z,1013.26
2023-04-11T16:29:38.477Z,1013.18
2023-04-11T16:34:37.530Z,1013.16
2023-04-11T16:39:36.848Z,1013.09
2023-04-11T16:44:36.139Z,1013.05
2023-04-11T16:49:36.487Z,1012.98
2023-04-11T16:54:34.858Z,1012.84
2023-04-11T16:59:33.537Z,1012.87
2023-04-11T17:04:33.305Z,1012.89
2023-04-11T17:09:32.139Z,1012.80
2023-04-11T17:14:31.239Z,1012.83
2023-04-11T17:19:31.500Z,1012.74
2023-04-11T17:24:31.020Z,1012.73
2023-04-11T17:29:28.943Z,1012.71
2023-04-11T17:34:29.177Z,1012.56
2023-04-11T17:39:27.413Z,1012.58
2023-04-11T17:44:26.640Z,1012.56
2023-04-11T17:49:26.905Z,1012.52
2023-04-11T17:54:25.171Z,1012.52
2023-04-11T17:59:24.456Z,1012.57
2023-04-11T18:04:23.899Z,1012.58
2023-04-11T18:09:23.047Z,1012.52
2023-04-11T18:14:27.403Z,1012.44
2023-04-11T18:19:21.514Z,1012.38
2023-04-11T18:24:21.977Z,1012.34
2023-04-11T18:29:20.044Z,1012.32
2023-04-11T18:34:20.369Z,1012.38
2023-04-11T18:39:20.320Z,1012.37
2023-04-11T18:44:19.757Z,1012.39
2023-04-11T18:49:17.963Z,1012.40
2023-04-11T18:54:17.677Z,1012.37
2023-04-11T18:59:18.413Z,1012.34
2023-04-11T19:04:15.861Z,1012.31
2023-04-11T19:09:14.281Z,1012.31
2023-04-11T19:14:14.490Z,1012.31
2023-04-11T19:19:11.752Z,1012.29
2023-04-11T19:24:12.038Z,1012.29
2023-04-11T19:29:12.276Z,1012.35
2023-04-11T19:34:10.370Z,1012.26
2023-04-11T19:39:09.880Z,1012.25
2023-04-11T19:44:10.014Z,1012.24
2023-04-11T19:49:09.334Z,1012.17
2023-04-11T19:54:07.587Z,1012.11
2023-04-11T19:59:07.837Z,1012.02
2023-04-11T20:04:07.342Z,1011.94
2023-04-11T20:09:05.275Z,1011.79
2023-04-11T20:14:05.583Z,1011.75
2023-04-11T20:19:04.575Z,1011.68
2023-04-11T20:24:02.864Z,1011.60
2023-04-11T20:29:00.919Z,1011.63
2023-04-11T20:34:01.199Z,1011.67
2023-04-11T20:39:00.511Z,1011.65
2023-04-11T20:43:59.857Z,1011.63
2023-04-11T20:48:58.908Z,1011.66
2023-04-11T20:53:58.404Z,1011.70
2023-04-11T20:58:59.383Z,1011.62
2023-04-11T21:03:56.069Z,1011.60
2023-04-11T21:08:55.937Z,1011.66
2023-04-11T21:13:55.471Z,1011.47
2023-04-11T21:18:55.440Z,1011.45
2023-04-11T21:23:55.919Z,1011.39
2023-04-11T21:28:53.036Z,1011.38
2023-04-11T21:33:53.312Z,1011.35
2023-04-11T21:38:51.567Z,1011.26
2023-04-11T21:43:50.873Z,1011.21
2023-04-11T21:48:51.465Z,1011.22
2023-04-11T21:53:50.429Z,1011.07
2023-04-11T21:58:48.697Z,1011.12
2023-04-11T22:03:48.195Z,1011.09
2023-04-11T22:08:48.233Z,1011.05
2023-04-11T22:13:46.634Z,1011.00
2023-04-11T22:18:45.709Z,1010.92
2023-04-11T22:23:44.986Z,1010.86
2023-04-11T22:28:45.253Z,1010.87
2023-04-11T22:33:44.527Z,1010.80
2023-04-11T22:38:42.825Z,1010.71
2023-04-11T22:43:42.117Z,1010.62
2023-04-11T22:48:41.382Z,1010.62
2023-04-11T22:53:40.632Z,1010.61
2023-04-11T22:58:39.857Z,1010.56
2023-04-11T23:03:37.132Z,1010.55
2023-04-11T23:08:39.393Z,1010.59
2023-04-11T23:13:37.727Z,1010.50
2023-04-11T23:18:37.004Z,1010.42
2023-04-11T23:23:36.278Z,1010.42
2023-04-11T23:28:36.584Z,1010.24
2023-04-11T23:33:35.819Z,1010.21
2023-04-11T23:38:34.085Z,1010.19
2023-04-11T23:43:34.353Z,1010.14
2023-04-11T23:48:33.522Z,1010.05
2023-04-11T23:53:32.864Z,1010.09
2023-04-11T23:58:31.209Z,1009.97
